Time;durP1;ratioP1;P1;durP2;ratioP2;P2;SDS_P1;SDS_P2;PMS_P1;PMS_P2;Temp;Humidity;BMP_temperature;BMP_pressure;BME280_temperature;BME280_humidity;BME280_pressure;Samples;Min_cycle;Max_cycle;Signal;HPM_P1;HPM_P2
2022/07/20 00:01:04;;;;;;;16.10;5.20;;;;;;;19.58;100.00;96455.00;5043808;28;20489;-46
2022/07/20 00:03:33;;;;;;;15.13;5.75;;;;;;;19.68;100.00;96460.81;5046587;28;20072;-54
2022/07/20 00:06:03;;;;;;;14.73;5.55;;;;;;;19.71;100.00;96459.59;5044389;28;20535;-55
2022/07/20 00:11:21;;;;;;;10.90;4.80;;;;;;;19.73;100.00;96455.72;5042475;28;20096;-61
2022/07/20 00:13:51;;;;;;;11.02;5.25;;;;;;;19.74;100.00;96462.69;5046483;28;20072;-49
2022/07/20 00:16:20;;;;;;;;;;;;;;;19.78;100.00;96463.13;5044701;28;20103;-56
2022/07/20 00:18:49;;;;;;;8.60;4.80;;;;;;;19.73;100.00;96465.59;5048444;28;19971;-52
2022/07/20 00:21:19;;;;;;;14.67;5.10;;;;;;;19.82;100.00;96461.69;5047782;28;20077;-47
2022/07/20 00:23:48;;;;;;;13.27;4.90;;;;;;;19.81;100.00;96457.38;5048152;28;20092;-47
2022/07/20 00:26:16;;;;;;;12.82;4.70;;;;;;;19.63;100.00;96455.28;5048574;28;20099;-53
2022/07/20 00:28:44;;;;;;;9.82;4.65;;;;;;;19.63;100.00;96445.38;5045386;28;20085;-54
2022/07/20 00:31:14;;;;;;;12.48;5.03;;;;;;;19.43;100.00;96449.81;5044857;28;20475;-45
2022/07/20 00:33:44;;;;;;;9.88;4.68;;;;;;;19.48;100.00;96457.22;5048425;28;20096;-45
2022/07/20 00:36:12;;;;;;;10.57;4.70;;;;;;;19.79;100.00;96459.44;5045480;28;20085;-48
2022/07/20 00:38:42;;;;;;;10.38;4.65;;;;;;;19.85;100.00;96447.91;5044242;28;20081;-46
2022/07/20 00:41:10;;;;;;;10.40;5.13;;;;;;;19.84;100.00;96451.63;5047481;28;20488;-47
2022/07/20 00:43:58;;;;;;;13.40;4.75;;;;;;;19.82;100.00;96446.47;5037454;28;20096;-47
2022/07/20 00:46:27;;;;;;;11.45;4.68;;;;;;;19.73;100.00;96438.84;5043949;28;20099;-59
2022/07/20 00:48:56;;;;;;;11.68;4.72;;;;;;;19.72;100.00;96446.03;5044453;28;20081;-55
2022/07/20 00:51:24;;;;;;;8.77;4.60;;;;;;;19.74;100.00;96438.63;5040501;28;20506;-59
2022/07/20 00:53:55;;;;;;;8.85;4.68;;;;;;;19.69;100.00;96438.41;5042526;28;20088;-46
2022/07/20 00:56:23;;;;;;;;;;;;;;;19.72;100.00;96440.69;5043654;28;20085;-44
2022/07/20 00:58:52;;;;;;;8.52;4.20;;;;;;;19.68;100.00;96445.63;5044909;28;20013;-47
2022/07/20 01:01:21;;;;;;;10.40;4.70;;;;;;;19.63;100.00;96436.53;5043413;28;20093;-51
2022/07/20 01:03:49;;;;;;;7.90;4.75;;;;;;;19.54;100.00;96438.53;5046326;28;20992;-50
2022/07/20 01:06:18;;;;;;;8.13;4.20;;;;;;;19.56;100.00;96430.31;5041603;28;20100;-47
2022/07/20 01:08:48;;;;;;;9.82;4.55;;;;;;;19.57;100.00;96434.63;5044339;28;20084;-47
2022/07/20 01:11:19;;;;;;;11.80;4.20;;;;;;;19.40;100.00;96437.66;5048965;28;20084;-55
2022/07/20 01:13:47;;;;;;;;;;;;;;;19.62;100.00;96437.53;5046787;28;20073;-49
2022/07/20 01:16:16;;;;;;;8.05;4.30;;;;;;;19.60;100.00;96434.25;5048955;28;19955;-48
2022/07/20 01:18:44;;;;;;;9.70;4.32;;;;;;;19.55;100.00;96431.34;5049600;28;20087;-48
2022/07/20 01:21:14;;;;;;;9.43;4.22;;;;;;;19.49;100.00;96426.81;5049370;28;20072;-48
2022/07/20 01:23:42;;;;;;;8.02;4.47;;;;;;;19.52;100.00;96424.56;5045446;28;20076;-50
2022/07/20 01:26:11;;;;;;;8.40;4.57;;;;;;;19.53;100.00;96422.69;5044793;28;20088;-50
2022/07/20 01:28:39;;;;;;;12.27;4.85;;;;;;;19.51;100.00;96428.25;5046864;28;20084;-46
2022/07/20 01:31:08;;;;;;;8.93;4.40;;;;;;;19.47;100.00;96427.00;5049464;28;20082;-47
2022/07/20 01:33:36;;;;;;;11.10;5.03;;;;;;;19.18;100.00;96426.28;5050421;28;20476;-57
2022/07/20 01:36:05;;;;;;;11.27;4.80;;;;;;;19.23;100.00;96424.84;5050010;28;20080;-49
2022/07/20 01:38:35;;;;;;;8.35;4.68;;;;;;;19.16;100.00;96416.81;5048277;28;20081;-51
2022/07/20 01:41:04;;;;;;;8.73;4.53;;;;;;;19.18;100.00;96415.59;5049566;28;20037;-48
2022/07/20 01:43:32;;;;;;;7.78;4.70;;;;;;;19.16;100.00;96409.59;5048965;28;20068;-48
2022/07/20 01:46:00;;;;;;;10.45;4.72;;;;;;;19.03;100.00;96411.41;5046908;28;20080;-47
2022/07/20 01:48:29;;;;;;;8.32;4.50;;;;;;;19.19;100.00;96413.72;5048489;28;20076;-47
2022/07/20 01:50:57;;;;;;;10.93;4.82;;;;;;;19.16;100.00;96412.28;5047600;28;20079;-51
2022/07/20 01:53:26;;;;;;;9.75;4.38;;;;;;;19.30;100.00;96415.00;5049692;28;20072;-49
2022/07/20 01:55:56;;;;;;;12.20;4.50;;;;;;;19.21;100.00;96419.72;5047669;28;20138;-50
2022/07/20 01:58:24;;;;;;;8.65;4.80;;;;;;;19.01;100.00;96416.13;5029268;28;20507;-49
2022/07/20 02:00:53;;;;;;;9.50;4.43;;;;;;;18.82;100.00;96418.47;5049089;28;20081;-50
2022/07/20 02:03:22;;;;;;;8.27;4.70;;;;;;;18.84;100.00;96411.09;5048328;28;20091;-50
2022/07/20 02:05:50;;;;;;;10.82;4.43;;;;;;;18.86;100.00;96405.59;5046136;28;20083;-51
2022/07/20 02:08:18;;;;;;;12.57;4.18;;;;;;;18.79;100.00;96416.22;5048626;28;20076;-52
2022/07/20 02:10:47;;;;;;;9.02;4.50;;;;;;;18.72;100.00;96407.38;5048206;28;20076;-48
2022/07/20 02:13:17;;;;;;;10.43;4.80;;;;;;;18.65;100.00;96403.75;5044512;28;20081;-56
2022/07/20 02:18:31;;;;;;;7.57;4.80;;;;;;;18.52;100.00;96409.06;5037735;28;20121;-55
2022/07/20 02:20:59;;;;;;;10.80;4.65;;;;;;;18.56;100.00;96404.97;5046965;28;20425;-54
2022/07/20 02:23:28;;;;;;;11.90;4.70;;;;;;;18.53;100.00;96414.19;5048799;28;20091;-55
2022/07/20 02:25:56;;;;;;;10.48;4.57;;;;;;;18.50;100.00;96415.41;5044231;28;20087;-52
2022/07/20 02:28:26;;;;;;;8.02;4.90;;;;;;;18.19;100.00;96422.97;5040763;28;20076;-49
2022/07/20 02:30:55;;;;;;;11.27;4.97;;;;;;;18.08;100.00;96420.84;5046817;28;20072;-51
2022/07/20 02:33:23;;;;;;;8.60;4.90;;;;;;;18.08;100.00;96426.16;5047033;28;20089;-49
2022/07/20 02:35:51;;;;;;;7.40;4.60;;;;;;;18.11;100.00;96423.94;5044647;28;20107;-46
2022/07/20 02:38:20;;;;;;;8.43;4.78;;;;;;;18.20;100.00;96422.78;5047570;28;20076;-51
2022/07/20 02:40:48;;;;;;;7.90;4.72;;;;;;;18.23;100.00;96427.72;5048153;28;20092;-52
2022/07/20 02:43:17;;;;;;;7.32;4.78;;;;;;;18.28;100.00;96435.16;5042736;28;20466;-48
2022/07/20 02:45:47;;;;;;;10.48;4.95;;;;;;;18.27;100.00;96430.81;5047576;28;20060;-46
2022/07/20 02:48:15;;;;;;;8.57;4.93;;;;;;;18.19;100.00;96434.47;5031457;28;20076;-50
2022/07/20 02:50:44;;;;;;;6.90;4.63;;;;;;;18.19;100.00;96437.13;5047357;28;20057;-49
2022/07/20 02:53:13;;;;;;;10.85;4.30;;;;;;;18.20;100.00;96429.94;5043740;28;20811;-46
2022/07/20 02:55:43;;;;;;;7.63;5.00;;;;;;;18.23;100.00;96429.56;5046020;28;20069;-54
2022/07/20 02:58:12;;;;;;;9.95;4.72;;;;;;;18.22;100.00;96426.06;5044844;28;20076;-48
2022/07/20 03:00:42;;;;;;;8.98;4.30;;;;;;;18.13;100.00;96435.22;5044154;28;20048;-51
2022/07/20 03:03:12;;;;;;;11.97;4.63;;;;;;;18.00;100.00;96433.28;5047438;28;20068;-57
2022/07/20 03:05:41;;;;;;;7.35;4.30;;;;;;;18.24;100.00;96426.72;5042262;28;20084;-46
2022/07/20 03:08:10;;;;;;;8.70;4.88;;;;;;;18.27;100.00;96428.16;5044879;28;20649;-55
2022/07/20 03:10:38;;;;;;;10.27;4.70;;;;;;;18.20;100.00;96432.63;5048277;28;20605;-52
2022/07/20 03:13:06;;;;;;;5.72;4.25;;;;;;;18.26;100.00;96439.84;5050034;28;20498;-52
2022/07/20 03:15:35;;;;;;;10.48;4.50;;;;;;;18.08;100.00;96435.00;5044803;28;20187;-54
2022/07/20 03:18:03;;;;;;;13.10;4.60;;;;;;;18.01;100.00;96437.59;5047572;28;20080;-52
2022/07/20 03:20:34;;;;;;;8.88;4.22;;;;;;;18.10;100.00;96443.66;5043731;28;20163;-50
2022/07/20 03:23:04;;;;;;;10.57;4.38;;;;;;;18.08;100.00;96442.19;5051916;28;20077;-60
2022/07/20 03:25:32;;;;;;;7.50;4.00;;;;;;;18.25;100.00;96436.38;5046780;28;20077;-53
2022/07/20 03:28:01;;;;;;;8.80;4.80;;;;;;;18.21;100.00;96442.31;5041333;28;20080;-52
2022/07/20 03:30:30;;;;;;;8.93;4.57;;;;;;;18.15;100.00;96435.06;5047626;28;20457;-52
2022/07/20 03:32:59;;;;;;;13.38;4.60;;;;;;;18.03;100.00;96437.41;5045371;28;20084;-47
2022/07/20 03:35:27;;;;;;;9.25;4.65;;;;;;;17.98;100.00;96442.50;5046606;28;20083;-47
2022/07/20 03:37:57;;;;;;;12.48;4.97;;;;;;;17.85;100.00;96440.53;5047742;28;20084;-58
2022/07/20 03:40:25;;;;;;;10.18;4.90;;;;;;;17.78;100.00;96436.97;5047199;28;20085;-49
2022/07/20 03:42:54;;;;;;;14.82;4.63;;;;;;;17.68;100.00;96436.44;5047579;28;20471;-61
2022/07/20 03:45:22;;;;;;;9.70;4.55;;;;;;;17.68;100.00;96434.56;5042964;28;20084;-51
2022/07/20 03:47:55;;;;;;;8.60;4.65;;;;;;;17.98;100.00;96440.66;5042798;28;20081;-46
2022/07/20 03:50:24;;;;;;;6.43;4.35;;;;;;;18.08;100.00;96434.19;5046627;28;20080;-48
2022/07/20 03:52:53;;;;;;;8.73;4.30;;;;;;;18.05;100.00;96437.22;5046631;28;20089;-53
2022/07/20 03:55:23;;;;;;;11.25;4.80;;;;;;;18.10;100.00;96435.66;5046366;28;20107;-46
2022/07/20 03:57:51;;;;;;;5.90;3.90;;;;;;;18.03;100.00;96442.75;5043233;28;20048;-55
2022/07/20 04:00:20;;;;;;;6.60;4.55;;;;;;;18.12;100.00;96443.44;5048599;28;20542;-49
2022/07/20 04:02:48;;;;;;;10.70;4.90;;;;;;;18.14;100.00;96436.09;5042964;28;20480;-49
2022/07/20 04:05:17;;;;;;;6.22;5.15;;;;;;;18.60;100.00;96436.41;5040788;28;20492;-53
2022/07/20 04:07:45;;;;;;;8.60;4.95;;;;;;;19.41;100.00;96441.19;5043356;28;20494;-53
2022/07/20 04:10:14;;;;;;;5.80;4.70;;;;;;;20.00;100.00;96437.03;5044109;28;20099;-48
2022/07/20 04:12:52;;;;;;;6.93;4.50;;;;;;;20.38;100.00;96438.06;5046741;28;20574;-47
2022/07/20 04:15:20;;;;;;;7.50;5.00;;;;;;;21.33;100.00;96433.16;5046467;28;20467;-47
2022/07/20 04:17:49;;;;;;;6.82;4.90;;;;;;;22.14;100.00;96428.16;5044746;28;20076;-46
2022/07/20 04:20:17;;;;;;;5.28;4.50;;;;;;;22.57;100.00;96430.91;5045505;28;20103;-45
2022/07/20 04:22:45;;;;;;;6.55;4.45;;;;;;;22.63;100.00;96432.72;5042882;28;20085;-63
2022/07/20 04:25:14;;;;;;;6.85;4.72;;;;;;;23.01;100.00;96429.06;5043013;28;20093;-45
2022/07/20 04:27:44;;;;;;;5.95;4.90;;;;;;;23.69;100.00;96428.03;5044675;28;20055;-56
2022/07/20 04:30:15;;;;;;;6.25;4.88;;;;;;;24.51;100.00;96433.66;5046558;28;20077;-50
2022/07/20 04:32:43;;;;;;;6.35;5.03;;;;;;;24.25;100.00;96432.19;5046428;28;20545;-49
2022/07/20 04:35:12;;;;;;;14.35;5.18;;;;;;;25.01;100.00;96446.66;5044702;28;20084;-48
2022/07/20 04:37:41;;;;;;;7.28;5.03;;;;;;;24.65;100.00;96442.34;5043232;28;20576;-59
2022/07/20 04:40:10;;;;;;;6.75;4.40;;;;;;;25.57;100.00;96441.66;5044611;28;20080;-55
2022/07/20 04:42:38;;;;;;;6.10;4.20;;;;;;;25.42;100.00;96435.94;5042960;28;20085;-67
2022/07/20 04:45:07;;;;;;;8.60;5.00;;;;;;;25.60;100.00;96440.34;5047810;28;20132;-63
2022/07/20 04:47:37;;;;;;;7.65;4.60;;;;;;;25.48;100.00;96432.28;5049007;28;20236;-54
2022/07/20 04:50:06;;;;;;;9.35;4.75;;;;;;;25.26;100.00;96445.63;5044466;28;20809;-55
2022/07/20 04:52:35;;;;;;;10.17;4.57;;;;;;;25.60;100.00;96443.03;5050126;28;20513;-49
2022/07/20 04:55:04;;;;;;;6.35;4.57;;;;;;;26.40;97.98;96440.22;5045917;28;20629;-54
2022/07/20 04:57:32;;;;;;;7.05;4.75;;;;;;;27.32;78.61;96443.47;5050381;28;20483;-50
2022/07/20 05:00:00;;;;;;;11.75;5.05;;;;;;;27.68;74.43;96445.56;5048475;28;20750;-51
2022/07/20 05:02:29;;;;;;;5.60;4.53;;;;;;;26.48;92.23;96445.22;5049808;28;20084;-50
2022/07/20 05:04:59;;;;;;;7.75;5.07;;;;;;;25.23;100.00;96455.00;5042748;28;20073;-50
2022/07/20 05:07:27;;;;;;;8.32;5.60;;;;;;;25.52;100.00;96450.47;5049655;28;20080;-54
2022/07/20 05:09:55;;;;;;;6.13;5.07;;;;;;;25.28;100.00;96457.78;5043855;28;20081;-55
2022/07/20 05:12:24;;;;;;;10.10;5.15;;;;;;;25.95;100.00;96445.66;5047060;28;20073;-50
2022/07/20 05:14:52;;;;;;;11.45;5.55;;;;;;;26.43;100.00;96445.13;5041975;28;20084;-49
2022/07/20 05:17:21;;;;;;;7.03;5.30;;;;;;;26.67;99.56;96443.09;5047508;28;20084;-55
2022/07/20 05:19:49;;;;;;;6.95;5.00;;;;;;;26.23;100.00;96455.59;5048699;28;20076;-59
2022/07/20 05:22:19;;;;;;;9.30;5.10;;;;;;;27.81;82.80;96447.09;5045972;28;20091;-55
2022/07/20 05:24:47;;;;;;;7.38;5.25;;;;;;;27.49;87.29;96449.66;5047588;28;20077;-48
2022/07/20 05:27:15;;;;;;;9.23;4.93;;;;;;;26.83;95.29;96456.84;5044341;28;20064;-57
2022/07/20 05:29:44;;;;;;;9.23;4.97;;;;;;;26.92;98.39;96448.06;5050063;28;20087;-55
2022/07/20 05:32:12;;;;;;;8.15;4.82;;;;;;;26.34;100.00;96443.88;5048569;28;20103;-48
2022/07/20 05:34:41;;;;;;;7.43;4.72;;;;;;;26.46;100.00;96452.75;5049744;28;20087;-51
2022/07/20 05:37:10;;;;;;;10.00;4.65;;;;;;;27.28;99.32;96448.59;5045578;28;20669;-54
2022/07/20 05:39:39;;;;;;;7.85;4.78;;;;;;;27.83;96.23;96449.53;5049026;28;20080;-52
2022/07/20 05:42:08;;;;;;;7.93;4.82;;;;;;;28.62;88.86;96448.94;5048882;28;22562;-49
2022/07/20 05:44:36;;;;;;;6.53;4.40;;;;;;;28.73;85.91;96447.13;5044345;28;20084;-54
2022/07/20 05:47:06;;;;;;;7.43;4.30;;;;;;;28.55;87.49;96457.31;5045394;28;20076;-51
2022/07/20 05:49:34;;;;;;;6.88;4.57;;;;;;;27.69;100.00;96452.59;5049755;28;20072;-48
2022/07/20 05:52:03;;;;;;;8.55;4.35;;;;;;;27.15;100.00;96465.19;5046079;28;20085;-58
2022/07/20 05:54:32;;;;;;;9.13;4.88;;;;;;;27.84;100.00;96454.72;5045193;28;20095;-63
2022/07/20 05:57:02;;;;;;;8.50;4.83;;;;;;;28.24;92.42;96455.38;5047794;28;20093;-55
2022/07/20 05:59:37;;;;;;;7.03;4.18;;;;;;;28.05;90.86;96452.22;5049046;28;20464;-58
2022/07/20 06:02:06;;;;;;;7.78;4.65;;;;;;;27.95;97.75;96462.97;5045551;28;20088;-53
2022/07/20 06:04:34;;;;;;;6.55;4.10;;;;;;;27.74;97.57;96467.31;5048230;28;20080;-54
2022/07/20 06:07:02;;;;;;;6.20;3.90;;;;;;;27.80;100.00;96466.31;5050840;28;20084;-54
2022/07/20 06:09:31;;;;;;;4.55;3.80;;;;;;;27.30;100.00;96465.41;5045313;28;20100;-54
2022/07/20 06:12:01;;;;;;;7.90;4.00;;;;;;;26.39;100.00;96472.88;5050403;28;20167;-52
2022/07/20 06:14:29;;;;;;;8.57;4.05;;;;;;;26.14;100.00;96475.97;5051297;28;20095;-51
2022/07/20 06:16:58;;;;;;;7.00;3.97;;;;;;;26.38;100.00;96471.25;5050854;28;20076;-51
2022/07/20 06:19:26;;;;;;;5.47;3.97;;;;;;;26.12;100.00;96470.81;5048064;28;20095;-59
2022/07/20 06:21:55;;;;;;;9.98;3.85;;;;;;;25.93;100.00;96472.09;5050418;28;20119;-56
2022/07/20 06:24:23;;;;;;;11.35;4.60;;;;;;;26.46;100.00;96465.44;5051070;28;20107;-54
2022/07/20 06:26:51;;;;;;;9.52;4.47;;;;;;;25.81;100.00;96466.72;5044227;28;20080;-55
2022/07/20 06:29:21;;;;;;;8.25;4.63;;;;;;;26.02;100.00;96465.22;5049040;28;20092;-50
2022/07/20 06:31:51;;;;;;;8.63;4.47;;;;;;;25.90;100.00;96465.25;5040500;28;20072;-53
2022/07/20 06:34:39;;;;;;;9.57;4.53;;;;;;;25.92;100.00;96468.56;5046824;28;20103;-55
2022/07/20 06:37:07;;;;;;;7.75;4.00;;;;;;;26.18;100.00;96464.41;5051588;28;20176;-56
2022/07/20 06:39:36;;;;;;;9.30;5.00;;;;;;;26.65;100.00;96461.47;5046528;28;20084;-52
2022/07/20 06:42:10;;;;;;;11.52;5.03;;;;;;;26.04;100.00;96463.91;5046184;28;20080;-49
2022/07/20 06:44:40;;;;;;;7.05;4.53;;;;;;;26.60;100.00;96469.50;5043958;28;20096;-51
2022/07/20 06:47:08;;;;;;;7.05;4.57;;;;;;;26.94;100.00;96469.47;5046972;28;20092;-49
2022/07/20 06:49:37;;;;;;;11.43;4.68;;;;;;;26.65;100.00;96474.16;5044664;28;20077;-55
2022/07/20 06:52:06;;;;;;;10.85;5.20;;;;;;;26.65;100.00;96466.88;5045431;28;20077;-51
2022/07/20 06:54:34;;;;;;;8.00;5.00;;;;;;;26.77;100.00;96466.75;5049448;28;20068;-50
2022/07/20 06:57:03;;;;;;;9.52;4.70;;;;;;;26.57;100.00;96464.59;5047855;28;20068;-56
2022/07/20 06:59:31;;;;;;;8.43;5.00;;;;;;;27.48;100.00;96472.41;5046649;28;20065;-49
2022/07/20 07:02:01;;;;;;;8.70;4.97;;;;;;;27.42;100.00;96470.69;5048803;28;20446;-48
2022/07/20 07:04:29;;;;;;;8.05;5.18;;;;;;;27.43;100.00;96472.34;5048071;28;20071;-54
2022/07/20 07:06:58;;;;;;;10.60;4.85;;;;;;;27.63;100.00;96472.59;5048962;28;20068;-49
2022/07/20 07:09:27;;;;;;;6.78;4.90;;;;;;;27.45;100.00;96481.03;5049639;28;20464;-47
2022/07/20 07:11:55;;;;;;;10.18;5.20;;;;;;;26.89;100.00;96481.03;5049982;28;20065;-52
2022/07/20 07:14:25;;;;;;;6.90;4.95;;;;;;;27.02;100.00;96481.78;5049622;28;20069;-51
2022/07/20 07:16:54;;;;;;;9.82;4.72;;;;;;;28.31;100.00;96474.97;5049336;28;20060;-50
2022/07/20 07:19:24;;;;;;;8.32;5.43;;;;;;;28.40;100.00;96478.88;5038151;28;20083;-50
2022/07/20 07:21:52;;;;;;;9.18;5.00;;;;;;;28.69;100.00;96481.28;5039825;28;20072;-53
2022/07/20 07:24:21;;;;;;;7.88;5.13;;;;;;;28.32;100.00;96479.31;5043433;28;20126;-62
2022/07/20 07:26:50;;;;;;;8.38;5.68;;;;;;;28.73;100.00;96488.66;5048226;28;20068;-54
2022/07/20 07:29:19;;;;;;;9.25;6.05;;;;;;;28.48;100.00;96486.53;5048673;28;20543;-57
2022/07/20 07:31:48;;;;;;;11.00;5.65;;;;;;;28.51;100.00;96485.22;5048845;28;20064;-47
2022/07/20 07:34:16;;;;;;;10.90;5.90;;;;;;;29.03;100.00;96477.22;5048632;28;20076;-48
2022/07/20 07:36:46;;;;;;;9.57;5.70;;;;;;;28.97;100.00;96477.41;5045985;28;20109;-58
2022/07/20 07:39:14;;;;;;;10.65;6.18;;;;;;;28.56;100.00;96474.38;5045971;28;20080;-52
2022/07/20 07:41:43;;;;;;;10.18;6.95;;;;;;;28.85;100.00;96472.19;5045175;28;20071;-55
2022/07/20 07:44:11;;;;;;;11.73;6.47;;;;;;;29.01;100.00;96471.25;5045642;28;20480;-50
2022/07/20 07:46:40;;;;;;;11.40;6.82;;;;;;;29.13;100.00;96468.31;5046685;28;20084;-48
2022/07/20 07:49:08;;;;;;;10.13;6.43;;;;;;;29.57;100.00;96471.53;5043006;28;20068;-49
2022/07/20 07:51:37;;;;;;;11.40;6.63;;;;;;;29.92;96.54;96459.19;5037132;28;20060;-47
2022/07/20 07:54:07;;;;;;;12.23;6.72;;;;;;;29.90;99.20;96466.78;5042799;28;20088;-56
2022/07/20 07:56:36;;;;;;;9.95;6.22;;;;;;;29.92;93.69;96474.69;5043820;28;20061;-57
2022/07/20 07:59:05;;;;;;;7.57;5.93;;;;;;;30.51;89.46;96460.66;5041541;28;20080;-49
2022/07/20 08:01:53;;;;;;;8.02;6.13;;;;;;;30.35;97.09;96468.00;5046097;28;20077;-46
2022/07/20 08:04:21;;;;;;;10.18;6.10;;;;;;;30.37;89.38;96463.09;5027016;28;20076;-46
2022/07/20 08:06:50;;;;;;;9.40;5.93;;;;;;;29.96;97.74;96464.91;5042843;28;20076;-57
2022/07/20 08:09:20;;;;;;;11.35;6.50;;;;;;;30.84;89.21;96459.31;5037911;28;20057;-45
2022/07/20 08:11:49;;;;;;;9.23;6.38;;;;;;;30.71;82.47;96465.28;5043016;28;20086;-49
2022/07/20 08:14:17;;;;;;;12.02;6.13;;;;;;;30.69;82.94;96468.25;5042013;28;20561;-53
2022/07/20 08:16:46;;;;;;;10.02;6.13;;;;;;;30.90;81.04;96463.69;5047834;28;20071;-48
2022/07/20 08:19:14;;;;;;;15.43;6.60;;;;;;;30.77;85.15;96466.97;5041663;28;20519;-56
2022/07/20 08:21:42;;;;;;;12.30;6.00;;;;;;;30.53;86.17;96463.13;5046852;28;20067;-49
2022/07/20 08:24:13;;;;;;;10.95;6.57;;;;;;;30.84;79.53;96466.69;5047142;28;20088;-54
2022/07/20 08:26:44;;;;;;;9.07;6.18;;;;;;;31.16;76.97;96471.78;5039904;28;20458;-50
2022/07/20 08:29:12;;;;;;;14.00;6.22;;;;;;;31.13;78.68;96464.16;5048218;28;20076;-51
2022/07/20 08:31:41;;;;;;;10.50;6.57;;;;;;;31.20;70.42;96462.78;5040261;28;20099;-54
2022/07/20 08:34:09;;;;;;;10.70;6.50;;;;;;;31.50;72.76;96463.81;5042719;28;20460;-55
2022/07/20 08:36:37;;;;;;;7.85;6.40;;;;;;;31.58;80.27;96460.50;5049475;28;20097;-49
2022/07/20 08:39:06;;;;;;;10.15;6.15;;;;;;;31.44;75.56;96463.03;5048585;28;20092;-58
2022/07/20 08:41:35;;;;;;;12.63;6.57;;;;;;;31.77;68.63;96460.72;5049028;28;20089;-51
2022/07/20 08:44:05;;;;;;;14.77;6.28;;;;;;;31.47;70.33;96460.84;5048737;28;20081;-46
2022/07/20 08:46:34;;;;;;;12.32;6.32;;;;;;;32.17;66.96;96455.31;5048890;28;20091;-55
2022/07/20 08:49:04;;;;;;;10.45;6.30;;;;;;;32.29;67.34;96453.88;5048759;28;20077;-50
2022/07/20 08:51:32;;;;;;;13.80;6.00;;;;;;;32.19;64.37;96448.50;5048453;28;20577;-54
2022/07/20 08:54:01;;;;;;;8.70;6.15;;;;;;;32.24;62.19;96443.00;5048621;28;20085;-51
2022/07/20 08:56:29;;;;;;;9.90;6.60;;;;;;;32.87;61.03;96455.09;5045256;28;20076;-57
2022/07/20 08:58:57;;;;;;;7.88;6.53;;;;;;;32.91;58.37;96456.97;5048578;28;20085;-52
2022/07/20 09:01:28;;;;;;;12.15;7.20;;;;;;;33.31;54.96;96447.56;5042414;28;20491;-54
2022/07/20 09:04:06;;;;;;;;;;;;;;;32.43;61.34;96456.81;5044247;28;20144;-55
2022/07/20 09:06:46;;;;;;;13.05;6.70;;;;;;;33.02;57.61;96457.69;5043820;28;19960;-51
2022/07/20 09:09:15;;;;;;;9.13;6.57;;;;;;;32.70;56.00;96450.88;5045740;28;20080;-50
2022/07/20 09:11:45;;;;;;;;;;;;;;;32.63;55.45;96452.31;5043648;28;20404;-46
2022/07/20 09:14:13;;;;;;;9.68;6.43;;;;;;;33.07;51.97;96447.53;5045601;28;19955;-48
2022/07/20 09:16:46;;;;;;;10.73;6.22;;;;;;;32.97;49.23;96449.56;5048253;28;20093;-51
2022/07/20 09:19:15;;;;;;;8.90;6.47;;;;;;;33.35;50.96;96444.25;5048228;28;20508;-54
2022/07/20 09:21:48;;;;;;;12.05;6.82;;;;;;;32.71;53.32;96444.31;5046994;28;20088;-59
2022/07/20 09:24:19;;;;;;;11.85;6.53;;;;;;;32.99;51.75;96448.16;5050636;28;20084;-55
2022/07/20 09:27:04;;;;;;;12.65;6.68;;;;;;;33.55;51.05;96444.00;5044437;28;20088;-51
2022/07/20 09:29:32;;;;;;;9.80;6.40;;;;;;;33.08;53.35;96451.91;5044894;28;20088;-57
2022/07/20 09:32:03;;;;;;;12.00;6.90;;;;;;;33.44;50.21;96443.28;5051568;28;20099;-49
2022/07/20 09:34:36;;;;;;;12.73;6.80;;;;;;;33.73;48.57;96442.44;5051499;28;20080;-52
2022/07/20 09:37:16;;;;;;;12.60;6.78;;;;;;;33.92;49.77;96435.03;5051762;28;20080;-53
2022/07/20 09:40:03;;;;;;;8.52;6.55;;;;;;;34.02;46.88;96436.88;5051355;28;20562;-51
2022/07/20 09:42:39;;;;;;;14.45;6.68;;;;;;;33.75;48.32;96443.75;5051813;28;20562;-58
2022/07/20 09:45:22;;;;;;;11.02;6.88;;;;;;;34.17;46.65;96433.06;5051592;28;20087;-51
2022/07/20 09:48:13;;;;;;;10.85;6.63;;;;;;;34.54;44.04;96440.47;5051537;28;20139;-52
2022/07/20 09:50:43;;;;;;;9.32;6.60;;;;;;;34.26;41.63;96442.25;5044953;28;20527;-49
2022/07/20 09:53:13;;;;;;;11.15;6.50;;;;;;;34.33;41.59;96431.75;5045064;28;20073;-55
2022/07/20 09:55:42;;;;;;;8.50;6.78;;;;;;;34.42;41.61;96435.44;5051048;28;20088;-50
2022/07/20 09:58:10;;;;;;;11.20;7.20;;;;;;;34.49;40.74;96427.66;5054320;28;20084;-48
2022/07/20 10:00:39;;;;;;;9.63;6.93;;;;;;;33.94;44.24;96437.50;5051257;28;20081;-55
2022/07/20 10:03:15;;;;;;;9.77;6.72;;;;;;;34.47;42.31;96445.50;5050758;28;20076;-52
2022/07/20 10:05:44;;;;;;;9.80;7.18;;;;;;;33.93;42.64;96447.66;5050555;28;20084;-49
2022/07/20 10:08:13;;;;;;;9.40;6.78;;;;;;;34.12;41.38;96444.94;5043617;28;20079;-46
2022/07/20 10:10:42;;;;;;;9.88;6.93;;;;;;;34.54;40.08;96439.66;5050981;28;20092;-57
2022/07/20 10:13:10;;;;;;;7.57;6.32;;;;;;;34.43;41.29;96436.25;5050954;28;20084;-52
2022/07/20 10:15:46;;;;;;;14.52;7.18;;;;;;;34.85;44.17;96437.22;5051025;28;20091;-50
2022/07/20 10:18:16;;;;;;;8.98;6.72;;;;;;;34.90;43.54;96434.41;5050854;28;20096;-49
2022/07/20 10:20:49;;;;;;;10.93;7.25;;;;;;;34.91;39.26;96436.03;5050905;28;20494;-49
2022/07/20 10:23:38;;;;;;;10.85;6.40;;;;;;;34.81;44.71;96437.00;5049793;28;20092;-48
2022/07/20 10:26:25;;;;;;;10.48;6.90;;;;;;;35.10;42.03;96433.22;5044598;28;20084;-51
2022/07/20 10:29:00;;;;;;;11.38;6.78;;;;;;;34.99;39.38;96437.25;5050331;28;20502;-49
2022/07/20 10:31:48;;;;;;;9.30;6.55;;;;;;;34.95;40.80;96439.78;5044835;28;20134;-55
2022/07/20 10:34:34;;;;;;;11.93;6.20;;;;;;;34.79;39.71;96433.78;5046189;28;20533;-56
2022/07/20 10:37:31;;;;;;;10.43;6.75;;;;;;;35.07;38.03;96431.91;5050871;28;20093;-48
2022/07/20 10:40:12;;;;;;;10.60;6.80;;;;;;;35.08;40.02;96436.28;5048651;28;20087;-49
2022/07/20 10:42:42;;;;;;;8.10;5.70;;;;;;;34.97;37.45;96434.81;5049571;28;20531;-50
2022/07/20 10:45:30;;;;;;;10.25;5.80;;;;;;;34.91;36.13;96431.34;5050056;28;20538;-51
2022/07/20 10:48:01;;;;;;;10.57;5.80;;;;;;;34.87;37.80;96433.06;5050319;28;20084;-53
2022/07/20 10:50:38;;;;;;;9.40;5.50;;;;;;;34.92;34.43;96435.69;5050554;28;20041;-52
2022/07/20 10:53:39;;;;;;;10.55;5.70;;;;;;;35.10;34.73;96433.22;5044168;28;20095;-53
2022/07/20 10:56:10;;;;;;;14.32;6.20;;;;;;;35.62;33.92;96429.22;4968122;28;20609;-48
2022/07/20 10:58:42;;;;;;;11.10;6.00;;;;;;;35.55;34.83;96425.22;4960859;28;20645;-56
2022/07/20 11:01:12;;;;;;;11.10;5.88;;;;;;;35.81;34.84;96423.59;5004862;28;20103;-50
2022/07/20 11:03:42;;;;;;;11.70;6.28;;;;;;;35.84;35.92;96424.91;5049187;28;20064;-46
2022/07/20 11:06:12;;;;;;;;;;;;;;;35.99;35.69;96426.50;5050925;28;20085;-48
2022/07/20 11:08:43;;;;;;;9.32;6.22;;;;;;;35.92;35.69;96415.94;5044023;28;19964;-51
2022/07/20 11:11:16;;;;;;;9.30;6.20;;;;;;;36.22;36.88;96411.72;5049933;28;20092;-51
2022/07/20 11:13:46;;;;;;;10.82;5.80;;;;;;;35.92;33.37;96415.94;5046240;28;20099;-52
2022/07/20 11:16:14;;;;;;;;;;;;;;;35.99;32.16;96410.81;5050309;28;20092;-50
2022/07/20 11:18:42;;;;;;;9.98;5.68;;;;;;;35.98;35.74;96403.72;5049013;28;20355;-54
2022/07/20 11:21:12;;;;;;;7.90;5.40;;;;;;;35.99;31.95;96413.56;5042614;28;20088;-52
2022/07/20 11:23:45;;;;;;;8.32;5.70;;;;;;;36.10;31.68;96403.22;5049299;28;20095;-50
2022/07/20 11:26:15;;;;;;;7.90;5.60;;;;;;;36.34;30.86;96402.91;5049984;28;20434;-56
2022/07/20 11:28:46;;;;;;;8.20;5.38;;;;;;;36.47;32.64;96402.03;5050898;28;20722;-50
2022/07/20 11:31:16;;;;;;;11.40;5.65;;;;;;;36.56;33.02;96408.44;5049674;28;20104;-52
2022/07/20 11:33:46;;;;;;;7.10;5.43;;;;;;;36.10;34.42;96390.31;5049275;28;20087;-57
2022/07/20 11:36:18;;;;;;;7.10;5.68;;;;;;;36.30;32.99;96394.47;5049218;28;20525;-55
2022/07/20 11:38:48;;;;;;;8.00;5.63;;;;;;;36.50;31.82;96392.38;5049518;28;20084;-51
2022/07/20 11:41:20;;;;;;;11.75;5.78;;;;;;;36.29;31.81;96397.53;5049265;28;20091;-55
2022/07/20 11:43:49;;;;;;;15.38;5.22;;;;;;;36.25;31.94;96399.28;5049482;28;20499;-47
2022/07/20 11:46:20;;;;;;;6.30;5.32;;;;;;;36.32;31.92;96391.44;5049032;28;20083;-51